createdAt,value
2023-12-11T00:02:20.463Z,979.3
2023-12-11T00:04:46.556Z,979.2
2023-12-11T00:07:12.650Z,979.2
2023-12-11T00:09:38.748Z,979.2
2023-12-11T00:12:04.875Z,979.2
2023-12-11T00:14:30.938Z,979.1
2023-12-11T00:16:57.122Z,979.1
2023-12-11T00:19:23.123Z,979.1
2023-12-11T00:21:49.242Z,979.1
2023-12-11T00:24:15.444Z,979.1
2023-12-11T00:26:41.409Z,979.1
2023-12-11T00:29:07.562Z,979.1
2023-12-11T00:31:32.643Z,979
2023-12-11T00:33:58.710Z,979
2023-12-11T00:36:24.818Z,979.1
2023-12-11T00:38:50.896Z,979.1
2023-12-11T00:41:16.999Z,979.1
2023-12-11T00:43:43.105Z,979
2023-12-11T00:46:09.193Z,979
2023-12-11T00:48:35.276Z,978.9
2023-12-11T00:51:01.384Z,979
2023-12-11T00:53:27.465Z,978.9
2023-12-11T00:55:53.564Z,979
2023-12-11T00:58:19.651Z,978.9
2023-12-11T01:00:45.740Z,979
2023-12-11T01:03:10.856Z,979
2023-12-11T01:05:36.965Z,979.1
2023-12-11T01:08:03.046Z,979
2023-12-11T01:10:29.137Z,979.1
2023-12-11T01:12:55.231Z,979.2
2023-12-11T01:15:21.334Z,979.2
2023-12-11T01:17:47.446Z,979.1
2023-12-11T01:20:13.596Z,979
2023-12-11T01:22:39.633Z,979
2023-12-11T01:25:05.719Z,979.1
2023-12-11T01:27:31.804Z,979.1
2023-12-11T01:29:57.912Z,979
2023-12-11T01:32:24.003Z,979.1
2023-12-11T01:34:50.107Z,979.1
2023-12-11T01:37:16.219Z,979.1
2023-12-11T01:39:42.278Z,979
2023-12-11T01:42:08.403Z,979.1
2023-12-11T01:44:34.620Z,979
2023-12-11T01:47:00.573Z,979.1
2023-12-11T01:49:26.654Z,979.3
2023-12-11T01:51:52.764Z,979.3
2023-12-11T01:54:18.862Z,979.3
2023-12-11T01:56:44.951Z,979.4
2023-12-11T01:59:11.033Z,979.3
2023-12-11T02:01:36.167Z,979.3
2023-12-11T02:04:02.249Z,979.3
2023-12-11T02:06:28.336Z,979.3
2023-12-11T02:08:54.445Z,979.3
2023-12-11T02:11:20.531Z,979.3
2023-12-11T02:13:46.634Z,979.3
2023-12-11T02:16:12.732Z,979.2
2023-12-11T02:18:38.828Z,979.2
2023-12-11T02:21:04.929Z,979.2
2023-12-11T02:23:31.001Z,979.3
2023-12-11T02:25:57.097Z,979.1
2023-12-11T02:28:23.227Z,979.1
2023-12-11T02:30:49.291Z,979.2
2023-12-11T02:33:14.500Z,979.1
2023-12-11T02:35:40.499Z,979.1
2023-12-11T02:38:06.589Z,979.1
2023-12-11T02:40:32.690Z,979.1
2023-12-11T02:42:58.769Z,979.1
2023-12-11T02:45:24.887Z,979.1
2023-12-11T02:47:50.975Z,979.1
2023-12-11T02:50:17.053Z,979
2023-12-11T02:52:43.218Z,979
2023-12-11T02:55:09.255Z,979
2023-12-11T02:57:35.374Z,979
2023-12-11T03:00:01.436Z,979.1
2023-12-11T03:02:27.549Z,979
2023-12-11T03:04:52.660Z,979.1
2023-12-11T03:07:18.747Z,979.1
2023-12-11T03:09:44.882Z,979.1
2023-12-11T03:12:10.936Z,979
2023-12-11T03:14:37.030Z,979
2023-12-11T03:17:03.122Z,979
2023-12-11T03:19:29.227Z,979
2023-12-11T03:21:55.320Z,979
2023-12-11T03:24:21.406Z,979
2023-12-11T03:26:47.504Z,979
2023-12-11T03:29:13.599Z,979
2023-12-11T03:31:39.691Z,979
2023-12-11T03:34:05.830Z,979
2023-12-11T03:36:30.911Z,979
2023-12-11T03:38:56.993Z,978.8
2023-12-11T03:41:23.079Z,978.7
2023-12-11T03:43:49.192Z,978.8
2023-12-11T03:46:15.278Z,978.9
2023-12-11T03:48:41.378Z,978.8
2023-12-11T03:51:07.469Z,978.8
2023-12-11T03:53:33.557Z,978.8
2023-12-11T03:55:59.651Z,978.8
2023-12-11T03:58:25.761Z,978.7
2023-12-11T04:00:51.860Z,978.6
2023-12-11T04:03:17.939Z,978.5
2023-12-11T04:05:44.041Z,978.5
2023-12-11T04:08:10.251Z,978.6
2023-12-11T04:10:36.350Z,978.5
2023-12-11T04:13:02.426Z,978.4
2023-12-11T04:15:28.528Z,978.5
2023-12-11T04:17:54.663Z,978.4
2023-12-11T04:20:20.731Z,978.4
2023-12-11T04:22:46.826Z,978.4
2023-12-11T04:25:12.911Z,978.1
2023-12-11T04:27:39.013Z,978.3
2023-12-11T04:30:05.116Z,978.4
2023-12-11T04:32:31.272Z,978.3
2023-12-11T04:34:57.299Z,978.4
2023-12-11T04:37:23.371Z,978.4
2023-12-11T04:39:48.511Z,978.5
2023-12-11T04:42:14.629Z,978.5
2023-12-11T04:44:40.693Z,978.6
2023-12-11T04:47:06.776Z,978.7
2023-12-11T04:49:32.887Z,978.7
2023-12-11T04:51:58.997Z,978.8
2023-12-11T04:54:25.065Z,978.7
2023-12-11T04:56:51.161Z,978.8
2023-12-11T04:59:17.272Z,978.7
2023-12-11T05:01:43.348Z,978.6
2023-12-11T05:04:09.446Z,978.5
2023-12-11T05:06:35.549Z,978.4
2023-12-11T05:09:01.640Z,978.5
2023-12-11T05:11:26.757Z,978.4
2023-12-11T05:13:52.849Z,978.4
2023-12-11T05:16:18.935Z,978.4
2023-12-11T05:18:45.043Z,978.4
2023-12-11T05:21:11.131Z,978.2
2023-12-11T05:23:37.207Z,978.2
2023-12-11T05:26:03.317Z,978.3
2023-12-11T05:28:29.397Z,978.4
2023-12-11T05:30:55.504Z,978.5
2023-12-11T05:33:21.607Z,978.4
2023-12-11T05:35:47.687Z,978.3
2023-12-11T05:38:13.794Z,978.3
2023-12-11T05:40:39.894Z,978.3
2023-12-11T05:43:05.002Z,978.2
2023-12-11T05:45:31.137Z,978.1
2023-12-11T05:47:57.197Z,978.1
2023-12-11T05:50:23.260Z,977.9
2023-12-11T05:52:49.414Z,977.9
2023-12-11T05:55:15.459Z,977.8
2023-12-11T05:57:41.595Z,977.8
2023-12-11T06:00:06.687Z,977.9
2023-12-11T06:02:32.784Z,978
2023-12-11T06:04:58.936Z,978.2
2023-12-11T06:07:24.967Z,978.2
2023-12-11T06:09:51.062Z,978.3
2023-12-11T06:12:17.232Z,978.2
2023-12-11T06:14:43.256Z,978.3
2023-12-11T06:17:09.390Z,978.3
2023-12-11T06:19:35.436Z,978.1
2023-12-11T06:22:01.544Z,978.1
2023-12-11T06:24:27.646Z,978.2
2023-12-11T06:26:53.738Z,978.2
2023-12-11T06:29:19.821Z,978.1
2023-12-11T06:31:44.924Z,978.1
2023-12-11T06:34:11.029Z,978.2
2023-12-11T06:36:37.107Z,978.3
2023-12-11T06:39:03.236Z,978.4
2023-12-11T06:41:29.317Z,978.3
2023-12-11T06:43:55.412Z,978.3
2023-12-11T06:46:21.523Z,978.2
2023-12-11T06:48:47.596Z,978.1
2023-12-11T06:51:13.700Z,978
2023-12-11T06:53:39.774Z,977.9
2023-12-11T06:56:05.915Z,977.8
2023-12-11T06:58:31.970Z,977.9
2023-12-11T07:00:58.097Z,978.1
2023-12-11T07:03:23.167Z,978.1
2023-12-11T07:05:49.282Z,978.2
2023-12-11T07:08:15.436Z,978.1
2023-12-11T07:10:41.464Z,978.1
2023-12-11T07:13:07.574Z,978.2
2023-12-11T07:15:33.649Z,978.1
2023-12-11T07:17:59.774Z,978.1
2023-12-11T07:20:25.855Z,978
2023-12-11T07:22:51.944Z,978
2023-12-11T07:25:18.039Z,978
2023-12-11T07:27:44.129Z,977.9
2023-12-11T07:30:10.319Z,977.8
2023-12-11T07:32:36.329Z,977.9
2023-12-11T07:35:01.433Z,977.8
2023-12-11T07:37:27.532Z,977.9
2023-12-11T07:39:53.617Z,977.8
2023-12-11T07:42:19.738Z,977.9
2023-12-11T07:44:45.814Z,977.8
2023-12-11T07:47:11.903Z,977.7
2023-12-11T07:49:38.038Z,977.7
2023-12-11T07:52:04.091Z,977.6
2023-12-11T07:54:30.189Z,977.6
2023-12-11T07:56:56.307Z,977.5
2023-12-11T07:59:22.381Z,977.5
2023-12-11T08:01:48.468Z,977.5
2023-12-11T08:04:14.648Z,977.6
2023-12-11T08:06:39.709Z,977.6
2023-12-11T08:09:05.792Z,977.7
2023-12-11T08:11:31.893Z,977.8
2023-12-11T08:13:57.999Z,977.9
2023-12-11T08:16:24.068Z,978
2023-12-11T08:18:50.160Z,978.1
2023-12-11T08:21:16.253Z,978.2
2023-12-11T08:23:42.342Z,978.2
2023-12-11T08:26:08.455Z,978.2
2023-12-11T08:28:34.554Z,978.3
2023-12-11T08:31:00.629Z,978.2
2023-12-11T08:33:26.729Z,978.2
2023-12-11T08:35:52.832Z,978.1
2023-12-11T08:38:17.933Z,978.1
2023-12-11T08:40:44.038Z,978.1
2023-12-11T08:43:10.121Z,977.9
2023-12-11T08:45:36.242Z,978
2023-12-11T08:48:02.394Z,978.1
2023-12-11T08:50:28.419Z,978
2023-12-11T08:52:54.513Z,978
2023-12-11T08:55:20.597Z,978
2023-12-11T08:57:46.698Z,978.1
2023-12-11T09:00:12.790Z,978.1
2023-12-11T09:02:38.892Z,977.9
2023-12-11T09:05:05.104Z,978
2023-12-11T09:07:31.091Z,978
2023-12-11T09:09:56.179Z,978.2
2023-12-11T09:12:22.278Z,978.2
2023-12-11T09:14:48.396Z,978
2023-12-11T09:17:14.483Z,978.1
2023-12-11T09:19:40.560Z,978.1
2023-12-11T09:22:06.657Z,978
2023-12-11T09:24:32.753Z,978.1
2023-12-11T09:26:58.859Z,978.2
2023-12-11T09:29:24.947Z,978.1
2023-12-11T09:31:51.054Z,978.2
2023-12-11T09:34:17.129Z,978.2
2023-12-11T09:36:43.228Z,978.4
2023-12-11T09:39:09.327Z,978.3
2023-12-11T09:41:34.436Z,978.2
2023-12-11T09:44:00.535Z,978.4
2023-12-11T09:46:26.636Z,978.1
2023-12-11T09:48:52.708Z,978.2
2023-12-11T09:51:18.873Z,978.2
2023-12-11T09:53:44.911Z,978.1
2023-12-11T09:56:11.003Z,978
2023-12-11T09:58:37.101Z,978
2023-12-11T10:01:03.227Z,978.1
2023-12-11T10:03:29.281Z,978.1
2023-12-11T10:05:55.390Z,978
2023-12-11T10:08:21.489Z,978
2023-12-11T10:10:47.585Z,978
2023-12-11T10:13:12.685Z,978.1
2023-12-11T10:15:38.763Z,978.1
2023-12-11T10:18:04.865Z,978.2
2023-12-11T10:20:30.973Z,978.1
2023-12-11T10:22:57.066Z,978
2023-12-11T10:25:23.142Z,978
2023-12-11T10:27:49.246Z,978.1
2023-12-11T10:30:15.328Z,978
2023-12-11T10:32:41.433Z,977.9
2023-12-11T10:35:07.515Z,978
2023-12-11T10:37:33.611Z,978
2023-12-11T10:39:59.704Z,978
2023-12-11T10:42:25.811Z,978.1
2023-12-11T10:44:50.924Z,977.9
2023-12-11T10:47:17.155Z,977.9
2023-12-11T10:49:43.383Z,977.8
2023-12-11T10:54:35.644Z,977.8
2023-12-11T10:57:01.710Z,977.7
2023-12-11T10:59:27.517Z,977.8
2023-12-11T11:01:53.619Z,977.9
2023-12-11T11:04:19.674Z,977.9
2023-12-11T11:06:45.778Z,978
2023-12-11T11:09:12.016Z,978
2023-12-11T11:11:38.075Z,978
2023-12-11T11:14:04.056Z,977.9
2023-12-11T11:16:29.173Z,977.9
2023-12-11T11:18:55.368Z,977.9
2023-12-11T11:21:21.676Z,978
2023-12-11T11:23:47.759Z,978
2023-12-11T11:26:13.660Z,978
2023-12-11T11:28:40.027Z,978
2023-12-11T11:31:06.056Z,977.9
2023-12-11T11:33:32.193Z,977.9
2023-12-11T11:35:58.150Z,978
2023-12-11T11:38:24.347Z,977.9
2023-12-11T11:40:50.153Z,977.9
2023-12-11T11:43:16.304Z,977.9
2023-12-11T11:45:42.604Z,978
2023-12-11T11:48:07.554Z,977.9
2023-12-11T11:50:33.888Z,977.9
2023-12-11T11:52:59.817Z,978
2023-12-11T11:55:26.016Z,978
2023-12-11T11:57:51.936Z,977.9
2023-12-11T12:00:18.245Z,978
2023-12-11T12:05:10.328Z,978.2
2023-12-11T12:07:36.475Z,978.2
2023-12-11T12:10:02.278Z,978.3
2023-12-11T12:12:28.709Z,978.2
2023-12-11T12:14:54.464Z,978.2
2023-12-11T12:17:20.819Z,978.1
2023-12-11T12:19:45.896Z,978.2
2023-12-11T12:22:11.834Z,978.3
2023-12-11T12:24:38.215Z,978.2
2023-12-11T12:27:03.947Z,978.3
2023-12-11T12:29:30.333Z,978.2
2023-12-11T12:31:56.211Z,978.3
2023-12-11T12:34:22.358Z,978.2
2023-12-11T12:36:48.581Z,978.1
2023-12-11T12:39:14.742Z,978.2
2023-12-11T12:41:40.854Z,978.2
2023-12-11T12:44:06.871Z,978.2
2023-12-11T12:46:32.822Z,978.2
2023-12-11T12:48:58.994Z,978.3
2023-12-11T12:51:24.126Z,978.3
2023-12-11T12:53:50.362Z,978.3
2023-12-11T12:56:16.392Z,978.3
2023-12-11T12:58:42.246Z,978.3
2023-12-11T13:01:08.589Z,978.4
2023-12-11T13:03:34.430Z,978.3
2023-12-11T13:06:00.791Z,978.3
2023-12-11T13:08:26.867Z,978.4
2023-12-11T13:10:52.996Z,978.3
2023-12-11T13:13:18.864Z,978.5
2023-12-11T13:15:45.231Z,978.4
2023-12-11T13:18:11.202Z,978.5
2023-12-11T13:20:37.256Z,978.6
2023-12-11T13:23:02.488Z,978.7
2023-12-11T13:25:28.602Z,978.6
2023-12-11T13:27:54.586Z,978.6
2023-12-11T13:30:20.785Z,978.6
2023-12-11T13:32:46.656Z,978.6
2023-12-11T13:35:13.000Z,978.7
2023-12-11T13:37:39.028Z,978.6
2023-12-11T13:40:05.057Z,978.7
2023-12-11T13:42:31.145Z,978.8
2023-12-11T13:44:57.356Z,978.9
2023-12-11T13:47:23.296Z,978.8
2023-12-11T13:49:49.373Z,978.8
2023-12-11T13:52:15.469Z,978.7
2023-12-11T13:54:40.525Z,978.9
2023-12-11T13:57:06.750Z,978.8
2023-12-11T13:59:32.903Z,978.9
2023-12-11T14:01:58.658Z,978.9
2023-12-11T14:04:25.034Z,979.1
2023-12-11T14:06:51.187Z,978.9
2023-12-11T14:09:16.272Z,979
2023-12-11T14:11:42.331Z,979
2023-12-11T14:14:08.412Z,978.9
2023-12-11T14:16:34.526Z,979
2023-12-11T14:19:00.383Z,978.9
2023-12-11T14:21:26.434Z,978.9
2023-12-11T14:23:52.660Z,978.9
2023-12-11T14:26:18.756Z,979.1
2023-12-11T14:28:44.933Z,979.1
2023-12-11T14:31:11.084Z,979.2
2023-12-11T14:33:37.166Z,979.2
2023-12-11T14:36:03.276Z,979.2
2023-12-11T14:38:29.424Z,979.4
2023-12-11T14:40:54.495Z,979.3
2023-12-11T14:43:20.320Z,979.3
2023-12-11T14:45:46.708Z,979.4
2023-12-11T14:48:12.702Z,979.4
2023-12-11T14:50:38.970Z,979.4
2023-12-11T14:53:05.068Z,979.5
2023-12-11T14:55:31.091Z,979.5
2023-12-11T14:57:57.243Z,979.5
2023-12-11T15:00:23.389Z,979.4
2023-12-11T15:02:49.330Z,979.5
2023-12-11T15:05:15.205Z,979.6
2023-12-11T15:07:41.566Z,979.7
2023-12-11T15:10:07.541Z,979.6
2023-12-11T15:12:32.767Z,979.6
2023-12-11T15:14:58.882Z,979.7
2023-12-11T15:17:24.935Z,979.7
2023-12-11T15:19:51.048Z,979.9
2023-12-11T15:22:17.133Z,979.9
2023-12-11T15:24:42.970Z,980
2023-12-11T15:27:09.115Z,980.1
2023-12-11T15:29:35.433Z,980.1
2023-12-11T15:32:01.330Z,980.2
2023-12-11T15:34:27.314Z,980.2
2023-12-11T15:36:53.694Z,980.2
2023-12-11T15:39:19.732Z,980.3
2023-12-11T15:41:45.907Z,980.3
2023-12-11T15:44:11.021Z,980.3
2023-12-11T15:46:37.125Z,980.3
2023-12-11T15:49:03.271Z,980.3
2023-12-11T15:51:29.316Z,980.4
2023-12-11T15:53:55.328Z,980.4
2023-12-11T15:56:21.190Z,980.5
2023-12-11T15:58:47.289Z,980.6
2023-12-11T16:01:13.696Z,980.6
2023-12-11T16:03:39.732Z,980.5
2023-12-11T16:06:05.616Z,980.5
2023-12-11T16:08:31.918Z,980.6
2023-12-11T16:10:58.137Z,980.7
2023-12-11T16:13:23.989Z,980.7
2023-12-11T16:15:49.119Z,980.8
2023-12-11T16:18:15.048Z,980.8
2023-12-11T16:20:41.444Z,980.8
2023-12-11T16:23:07.536Z,980.8
2023-12-11T16:25:33.676Z,980.8
2023-12-11T16:27:59.423Z,980.9
2023-12-11T16:30:25.766Z,980.8
2023-12-11T16:32:51.883Z,981
2023-12-11T16:35:17.845Z,981
2023-12-11T16:37:44.100Z,981.1
2023-12-11T16:40:10.173Z,981.1
2023-12-11T16:42:36.149Z,981
2023-12-11T16:45:02.361Z,981.1
2023-12-11T16:47:27.496Z,981
2023-12-11T16:49:53.586Z,981.1
2023-12-11T16:52:19.624Z,981.2
2023-12-11T16:54:45.546Z,981.2
2023-12-11T16:57:11.853Z,981.2
2023-12-11T16:59:37.855Z,981.2
2023-12-11T17:02:03.939Z,981.2
2023-12-11T17:04:30.017Z,981.2
2023-12-11T17:06:56.082Z,981.2
2023-12-11T17:09:22.283Z,981.2
2023-12-11T17:11:48.260Z,981.2
2023-12-11T17:14:14.414Z,981.2
2023-12-11T17:16:40.514Z,981.2
2023-12-11T17:19:05.574Z,981.2
2023-12-11T17:21:31.792Z,981.2
2023-12-11T17:23:57.648Z,981.3
2023-12-11T17:26:23.944Z,981.2
2023-12-11T17:28:49.830Z,981.3
2023-12-11T17:31:15.943Z,981.3
2023-12-11T17:33:42.210Z,981.2
2023-12-11T17:36:08.217Z,981.3
2023-12-11T17:38:34.286Z,981.3
2023-12-11T17:41:00.343Z,981.4
2023-12-11T17:43:26.510Z,981.3
2023-12-11T17:45:52.508Z,981.4
2023-12-11T17:48:18.590Z,981.3
2023-12-11T17:50:43.785Z,981.4
2023-12-11T17:53:10.062Z,981.3
2023-12-11T17:55:35.884Z,981.4
2023-12-11T17:58:02.042Z,981.5
2023-12-11T18:00:28.226Z,981.6
2023-12-11T18:02:54.165Z,981.5
2023-12-11T18:05:20.379Z,981.6
2023-12-11T18:07:46.748Z,981.5
2023-12-11T18:10:12.448Z,981.6
2023-12-11T18:12:38.546Z,981.5
2023-12-11T18:15:04.684Z,981.6
2023-12-11T18:17:31.019Z,981.7
2023-12-11T18:19:56.836Z,981.6
2023-12-11T18:22:22.047Z,981.6
2023-12-11T18:24:48.238Z,981.6
2023-12-11T18:27:14.114Z,981.8
2023-12-11T18:29:40.360Z,981.8
2023-12-11T18:32:06.614Z,981.7
2023-12-11T18:34:32.519Z,981.7
2023-12-11T18:36:58.682Z,981.8
2023-12-11T18:39:24.609Z,981.9
2023-12-11T18:41:51.051Z,982
2023-12-11T18:44:17.056Z,982
2023-12-11T18:46:43.144Z,982
2023-12-11T18:49:09.031Z,981.9
2023-12-11T18:51:35.140Z,982
2023-12-11T18:54:00.295Z,982.1
2023-12-11T18:56:26.283Z,982.1
2023-12-11T18:58:52.725Z,982.1
2023-12-11T19:03:44.837Z,982.2
2023-12-11T19:06:10.820Z,982.2
2023-12-11T19:08:37.090Z,982.2
2023-12-11T19:11:02.998Z,982.4
2023-12-11T19:13:28.930Z,982.4
2023-12-11T19:15:55.212Z,982.4
2023-12-11T19:18:21.280Z,982.5
2023-12-11T19:20:47.392Z,982.6
2023-12-11T19:23:13.579Z,982.5
2023-12-11T19:25:39.595Z,982.6
2023-12-11T19:28:05.791Z,982.6
2023-12-11T19:30:30.877Z,982.6
2023-12-11T19:32:56.897Z,982.6
2023-12-11T19:35:22.946Z,982.7
2023-12-11T19:37:49.199Z,982.6
2023-12-11T19:40:15.267Z,982.7
2023-12-11T19:42:41.102Z,982.7
2023-12-11T19:45:07.387Z,982.8
2023-12-11T19:47:33.568Z,982.9
2023-12-11T19:49:59.540Z,982.8
2023-12-11T19:52:25.487Z,982.9
2023-12-11T19:54:51.770Z,982.9
2023-12-11T19:57:17.672Z,982.9
2023-12-11T19:59:43.984Z,982.9
2023-12-11T20:02:08.873Z,982.9
2023-12-11T20:04:34.991Z,983
2023-12-11T20:07:01.063Z,983
2023-12-11T20:09:27.190Z,983
2023-12-11T20:11:53.456Z,983.1
2023-12-11T20:14:19.336Z,983.1
2023-12-11T20:16:45.588Z,983.2
2023-12-11T20:19:11.778Z,983.2
2023-12-11T20:21:37.761Z,983.2
2023-12-11T20:24:03.847Z,983.1
2023-12-11T20:26:29.878Z,983.1
2023-12-11T20:28:56.238Z,983.1
2023-12-11T20:31:21.998Z,983.1
2023-12-11T20:33:48.375Z,983
2023-12-11T20:36:14.192Z,983
2023-12-11T20:38:40.301Z,983.1
2023-12-11T20:41:06.786Z,983.1
2023-12-11T20:43:32.694Z,983
2023-12-11T20:45:58.795Z,983
2023-12-11T20:48:24.815Z,983.1
2023-12-11T20:50:49.919Z,983
2023-12-11T20:53:16.081Z,983
2023-12-11T20:55:42.019Z,983
2023-12-11T20:58:08.225Z,983
2023-12-11T21:00:34.319Z,983.1
2023-12-11T21:03:00.465Z,983.1
2023-12-11T21:05:26.616Z,983
2023-12-11T21:07:52.732Z,983.1
2023-12-11T21:10:18.610Z,983.2
2023-12-11T21:12:44.733Z,983.2
2023-12-11T21:15:10.877Z,983.3
2023-12-11T21:17:36.890Z,983.3
2023-12-11T21:20:03.080Z,983.1
2023-12-11T21:22:28.195Z,983.2
2023-12-11T21:24:54.265Z,983.4
2023-12-11T21:27:20.230Z,983.4
2023-12-11T21:29:46.452Z,983.4
2023-12-11T21:32:12.452Z,983.4
2023-12-11T21:34:38.534Z,983.5
2023-12-11T21:37:04.592Z,983.5
2023-12-11T21:39:30.796Z,983.5
2023-12-11T21:41:56.961Z,983.5
2023-12-11T21:44:23.000Z,983.4
2023-12-11T21:46:49.316Z,983.6
2023-12-11T21:49:15.225Z,983.5
2023-12-11T21:51:41.245Z,983.5
2023-12-11T21:54:06.354Z,983.6
2023-12-11T21:56:32.426Z,983.5
2023-12-11T21:58:58.780Z,983.6
2023-12-11T22:01:24.723Z,983.5
2023-12-11T22:03:50.850Z,983.5
2023-12-11T22:06:16.992Z,983.5
2023-12-11T22:08:43.202Z,983.4
2023-12-11T22:11:09.148Z,983.5
2023-12-11T22:13:35.151Z,983.4
2023-12-11T22:16:01.183Z,983.5
2023-12-11T22:18:27.202Z,983.5
2023-12-11T22:20:53.311Z,983.5
2023-12-11T22:23:19.465Z,983.4
2023-12-11T22:25:45.739Z,983.4
2023-12-11T22:28:11.849Z,983.3
2023-12-11T22:30:37.724Z,983.3
2023-12-11T22:33:03.902Z,983.4
2023-12-11T22:35:29.914Z,983.3
2023-12-11T22:37:56.100Z,983.3
2023-12-11T22:40:21.294Z,983.3
2023-12-11T22:42:47.284Z,983.4
2023-12-11T22:45:13.288Z,983.4
2023-12-11T22:47:39.360Z,983.3
2023-12-11T22:50:05.462Z,983.3
2023-12-11T22:52:31.937Z,983.3
2023-12-11T22:54:57.717Z,983.3
2023-12-11T22:57:23.856Z,983.3
2023-12-11T22:59:49.850Z,983.2
2023-12-11T23:02:15.972Z,983.3
2023-12-11T23:04:42.102Z,983.2
2023-12-11T23:07:08.151Z,983.3
2023-12-11T23:09:34.226Z,983.3
2023-12-11T23:12:00.571Z,983.4
2023-12-11T23:14:26.514Z,983.4
2023-12-11T23:16:52.625Z,983.5
2023-12-11T23:19:18.897Z,983.4
2023-12-11T23:21:43.966Z,983.4
2023-12-11T23:24:10.002Z,983.5
2023-12-11T23:26:36.033Z,983.5
2023-12-11T23:29:02.225Z,983.5
2023-12-11T23:31:28.297Z,983.6
2023-12-11T23:33:54.508Z,983.5
2023-12-11T23:36:20.597Z,983.5
2023-12-11T23:38:46.399Z,983.5
2023-12-11T23:41:12.467Z,983.4
2023-12-11T23:43:38.815Z,983.4
2023-12-11T23:46:04.657Z,983.4
2023-12-11T23:48:31.070Z,983.3
2023-12-11T23:50:57.050Z,983.5
2023-12-11T23:53:22.133Z,983.4
2023-12-11T23:55:48.276Z,983.5
2023-12-11T23:58:14.288Z,983.5
